Time;durP1;ratioP1;P1;durP2;ratioP2;P2;SDS_P1;SDS_P2;PMS_P1;PMS_P2;Temp;Humidity;BMP_temperature;BMP_pressure;BME280_temperature;BME280_humidity;BME280_pressure;Samples;Min_cycle;Max_cycle;Signal;HPM_P1;HPM_P2
2023/07/09 00:01:51;;;;;;;11.23;6.60;;;22.80;1.00;;;;;;4991346;28;20884;-74
2023/07/09 00:04:17;;;;;;;16.83;6.83;;;22.80;1.00;;;;;;4992207;28;20459;-74
2023/07/09 00:06:44;;;;;;;10.10;6.47;;;22.80;1.00;;;;;;4992187;28;20501;-74
2023/07/09 00:09:18;;;;;;;12.17;7.13;;;22.70;1.00;;;;;;4984532;28;20421;-74
2023/07/09 00:11:44;;;;;;;12.43;6.17;;;22.70;1.00;;;;;;4991775;28;20454;-73
2023/07/09 00:14:11;;;;;;;8.37;6.20;;;22.70;1.00;;;;;;4984674;28;20418;-74
2023/07/09 00:16:38;;;;;;;12.27;6.67;;;22.70;1.00;;;;;;4990389;28;20438;-73
2023/07/09 00:19:11;;;;;;;11.10;6.60;;;25.70;1.00;;;;;;4989424;28;20442;-73
2023/07/09 00:21:36;;;;;;;13.77;6.77;;;22.70;1.00;;;;;;4991709;28;20460;-72
2023/07/09 00:24:04;;;;;;;9.57;6.50;;;22.70;1.00;;;;;;4994539;28;20461;-74
2023/07/09 00:26:32;;;;;;;13.20;6.50;;;22.70;1.00;;;;;;4991398;28;20210;-74
2023/07/09 00:28:59;;;;;;;11.20;6.60;;;22.70;1.00;;;;;;4991334;28;20422;-74
2023/07/09 00:31:25;;;;;;;9.70;6.63;;;22.60;1.00;;;;;;4990464;28;20440;-75
2023/07/09 00:33:51;;;;;;;9.37;6.43;;;22.60;1.00;;;;;;4989560;28;20454;-73
2023/07/09 00:36:31;;;;;;;9.20;6.60;;;22.60;1.00;;;;;;4990952;28;20991;-74
2023/07/09 00:39:00;;;;;;;10.27;6.20;;;22.60;1.00;;;;;;4991216;28;20484;-74
2023/07/09 00:41:28;;;;;;;11.60;6.17;;;22.60;1.00;;;;;;4988067;28;20956;-73
2023/07/09 00:43:53;;;;;;;11.10;7.07;;;22.50;1.00;;;;;;4989350;28;20586;-74
2023/07/09 00:46:19;;;;;;;11.30;6.47;;;22.50;1.00;;;;;;4992423;28;20473;-74
2023/07/09 00:48:47;;;;;;;9.73;6.30;;;23.50;1.00;;;;;;4990319;28;20657;-74
2023/07/09 00:51:16;;;;;;;9.87;6.80;;;22.50;1.00;;;;;;4986849;28;20241;-74
2023/07/09 00:53:48;;;;;;;12.67;6.47;;;22.50;1.00;;;;;;4987932;28;21018;-74
2023/07/09 00:56:20;;;;;;;11.07;6.77;;;22.50;1.00;;;;;;4990435;28;20577;-74
2023/07/09 00:58:47;;;;;;;10.40;6.30;;;;;;;;;;4989750;28;20449;-73
2023/07/09 01:01:18;;;;;;;9.93;6.30;;;22.50;1.00;;;;;;4990177;28;20441;-73
2023/07/09 01:03:53;;;;;;;9.90;6.33;;;22.50;1.00;;;;;;4988580;28;20500;-74
2023/07/09 01:06:29;;;;;;;9.97;6.70;;;22.50;1.00;;;;;;4990739;28;20452;-74
2023/07/09 01:08:55;;;;;;;11.20;6.70;;;22.40;1.00;;;;;;4988513;28;20441;-73
2023/07/09 01:11:22;;;;;;;8.37;6.07;;;22.40;1.00;;;;;;4989488;28;20496;-74
2023/07/09 01:13:54;;;;;;;11.50;6.20;;;22.40;1.00;;;;;;4989048;28;20297;-74
2023/07/09 01:16:23;;;;;;;10.63;6.50;;;22.30;1.00;;;;;;4990748;28;20437;-74
2023/07/09 01:18:50;;;;;;;11.10;6.50;;;22.20;1.00;;;;;;4989252;28;20556;-74
2023/07/09 01:21:16;;;;;;;10.70;6.10;;;22.20;1.00;;;;;;4989957;28;20797;-74
2023/07/09 01:23:43;;;;;;;11.83;6.30;;;22.10;1.00;;;;;;4989673;28;20477;-74
2023/07/09 01:26:13;;;;;;;9.70;6.67;;;22.10;1.00;;;;;;4989427;28;20421;-74
2023/07/09 01:28:41;;;;;;;16.93;6.90;;;22.10;1.00;;;;;;4989990;28;21021;-74
2023/07/09 01:31:08;;;;;;;13.00;7.10;;;22.00;1.00;;;;;;4988949;28;20583;-73
2023/07/09 01:33:33;;;;;;;12.13;7.80;;;22.00;1.00;;;;;;4989105;28;20477;-74
2023/07/09 01:36:00;;;;;;;9.13;7.10;;;22.00;1.00;;;;;;4987692;28;20536;-74
2023/07/09 01:38:30;;;;;;;11.70;6.87;;;21.90;1.00;;;;;;4988869;28;20183;-72
2023/07/09 01:40:57;;;;;;;13.90;6.93;;;21.90;1.00;;;;;;4988334;28;20515;-72
2023/07/09 01:43:24;;;;;;;11.50;6.70;;;21.90;1.00;;;;;;4984904;28;20480;-73
2023/07/09 01:45:51;;;;;;;12.10;6.40;;;21.80;1.00;;;;;;4989028;28;20426;-74
2023/07/09 01:48:20;;;;;;;14.70;7.37;;;21.80;1.00;;;;;;4989492;28;20462;-74
2023/07/09 01:50:49;;;;;;;6.80;5.67;;;21.70;1.00;;;;;;4989930;28;20514;-74
2023/07/09 01:53:16;;;;;;;11.27;6.87;;;21.70;1.00;;;;;;4987929;28;20454;-73
2023/07/09 01:55:42;;;;;;;10.77;7.07;;;21.70;1.00;;;;;;4989750;28;20784;-74
2023/07/09 01:58:08;;;;;;;13.97;6.83;;;21.70;1.00;;;;;;4989441;28;20410;-74
2023/07/09 02:00:36;;;;;;;8.63;6.50;;;21.70;1.00;;;;;;4989541;28;20202;-74
2023/07/09 02:03:04;;;;;;;12.17;6.57;;;21.70;1.00;;;;;;4988984;28;20527;-74
2023/07/09 02:05:32;;;;;;;10.20;6.67;;;21.80;1.00;;;;;;4989472;28;20422;-73
2023/07/09 02:07:58;;;;;;;10.30;7.03;;;21.80;1.00;;;;;;4985322;28;20438;-74
2023/07/09 02:10:23;;;;;;;13.10;6.50;;;21.70;1.00;;;;;;4988339;28;20500;-74
2023/07/09 02:12:49;;;;;;;12.90;6.10;;;21.70;1.00;;;;;;4988596;28;20264;-74
2023/07/09 02:15:15;;;;;;;9.70;6.30;;;21.60;1.00;;;;;;4988605;28;20437;-72
2023/07/09 02:17:41;;;;;;;12.63;6.60;;;21.50;1.00;;;;;;4988916;28;20240;-74
2023/07/09 02:20:08;;;;;;;10.03;6.10;;;21.50;1.00;;;;;;4986925;28;20446;-74
2023/07/09 02:22:35;;;;;;;10.30;6.50;;;21.50;1.00;;;;;;4985438;28;20237;-73
2023/07/09 02:25:00;;;;;;;12.80;6.63;;;21.40;1.00;;;;;;4987646;28;20450;-75
2023/07/09 02:27:27;;;;;;;13.00;6.50;;;21.40;1.00;;;;;;4987262;28;20919;-74
2023/07/09 02:29:54;;;;;;;16.20;7.07;;;21.40;1.00;;;;;;4989141;28;20644;-74
2023/07/09 02:32:22;;;;;;;13.87;6.63;;;21.40;1.00;;;;;;4988598;28;20560;-72
2023/07/09 02:34:52;;;;;;;9.83;7.07;;;21.30;1.00;;;;;;4988631;28;20524;-74
2023/07/09 02:37:23;;;;;;;10.83;6.40;;;21.20;1.00;;;;;;4988608;28;20519;-74
2023/07/09 02:39:49;;;;;;;11.17;7.00;;;21.20;1.00;;;;;;4987600;28;20443;-74
2023/07/09 02:42:16;;;;;;;10.67;6.27;;;21.20;1.00;;;;;;4979647;28;20473;-73
2023/07/09 02:44:43;;;;;;;21.93;7.33;;;21.10;1.00;;;;;;4987669;28;20203;-73
2023/07/09 02:47:09;;;;;;;11.23;6.80;;;21.00;1.00;;;;;;4987850;28;20543;-74
2023/07/09 02:49:35;;;;;;;8.63;5.97;;;21.00;1.00;;;;;;4988819;28;20870;-74
2023/07/09 02:52:00;;;;;;;9.93;7.00;;;21.00;1.00;;;;;;4991649;28;20457;-72
2023/07/09 02:54:26;;;;;;;9.00;6.70;;;20.90;1.00;;;;;;4992450;28;20194;-74
2023/07/09 02:56:52;;;;;;;15.67;6.87;;;20.80;1.00;;;;;;4991689;28;20182;-74
2023/07/09 02:59:18;;;;;;;13.10;6.93;;;20.70;1.00;;;;;;4991859;28;20194;-74
2023/07/09 03:01:43;;;;;;;13.00;7.43;;;20.70;1.00;;;;;;4991853;28;20221;-72
2023/07/09 03:04:09;;;;;;;15.00;7.57;;;20.60;1.00;;;;;;4988491;28;20182;-74
2023/07/09 03:06:36;;;;;;;16.13;7.50;;;20.60;1.00;;;;;;4992306;28;20190;-74
2023/07/09 03:09:04;;;;;;;16.70;7.17;;;20.60;1.00;;;;;;4991385;28;20179;-70
2023/07/09 03:11:31;;;;;;;9.30;6.60;;;20.60;1.00;;;;;;4990358;28;20433;-73
2023/07/09 03:13:58;;;;;;;18.30;7.00;;;20.70;1.00;;;;;;4986319;28;20507;-74
2023/07/09 03:16:26;;;;;;;15.53;7.10;;;20.60;1.00;;;;;;4990997;28;20437;-74
2023/07/09 03:18:52;;;;;;;11.37;7.07;;;20.60;1.00;;;;;;4991779;28;20437;-74
2023/07/09 03:21:17;;;;;;;11.17;7.23;;;20.50;1.00;;;;;;4990740;28;20441;-74
2023/07/09 03:23:43;;;;;;;9.47;6.50;;;20.40;1.00;;;;;;4991111;28;20210;-75
2023/07/09 03:26:08;;;;;;;12.33;7.07;;;20.40;1.00;;;;;;4983904;28;20201;-74
2023/07/09 03:28:34;;;;;;;12.90;7.77;;;20.50;1.00;;;;;;4991116;28;20764;-72
2023/07/09 03:31:00;;;;;;;15.10;6.37;;;20.60;1.00;;;;;;4986451;28;20680;-73
2023/07/09 03:33:26;;;;;;;13.07;7.43;;;20.50;1.00;;;;;;4990545;28;20217;-73
2023/07/09 03:35:52;;;;;;;12.40;6.80;;;20.50;1.00;;;;;;4989345;28;20436;-74
2023/07/09 03:38:18;;;;;;;11.43;7.20;;;20.50;1.00;;;;;;4991064;28;20200;-73
2023/07/09 03:40:44;;;;;;;13.63;7.57;;;20.50;1.00;;;;;;4984917;28;20433;-75
2023/07/09 03:43:10;;;;;;;12.07;7.30;;;20.40;1.00;;;;;;4988627;28;20472;-73
2023/07/09 03:45:37;;;;;;;10.87;7.33;;;20.40;1.00;;;;;;4991274;28;20532;-73
2023/07/09 03:48:04;;;;;;;12.90;6.80;;;20.40;1.00;;;;;;4991069;28;20521;-74
2023/07/09 03:50:30;;;;;;;9.80;6.47;;;20.40;1.00;;;;;;4991399;28;20438;-73
2023/07/09 03:52:55;;;;;;;10.90;7.20;;;20.40;1.00;;;;;;4990570;28;20489;-74
2023/07/09 03:55:21;;;;;;;14.43;7.40;;;20.40;1.00;;;;;;4991203;28;20608;-74
2023/07/09 03:57:46;;;;;;;9.80;7.30;;;20.40;1.00;;;;;;4990907;28;20661;-74
2023/07/09 04:00:13;;;;;;;9.90;6.80;;;20.50;1.00;;;;;;4988097;28;20199;-73
2023/07/09 04:02:40;;;;;;;16.73;6.70;;;20.50;1.00;;;;;;4989253;28;20234;-73
2023/07/09 04:05:08;;;;;;;8.93;6.80;;;20.50;1.00;;;;;;4987668;28;20461;-71
2023/07/09 04:07:34;;;;;;;13.40;6.80;;;20.50;1.00;;;;;;4985766;28;20434;-74
2023/07/09 04:10:00;;;;;;;10.83;6.73;;;20.50;1.00;;;;;;4988178;28;20448;-73
2023/07/09 04:12:25;;;;;;;13.23;6.73;;;20.60;1.00;;;;;;4984770;28;20545;-73
2023/07/09 04:14:51;;;;;;;11.60;7.53;;;20.70;1.00;;;;;;4991217;28;20265;-75
2023/07/09 04:17:17;;;;;;;15.20;7.73;;;20.80;1.00;;;;;;4990533;28;20186;-74
2023/07/09 04:19:42;;;;;;;11.00;7.07;;;20.90;1.00;;;;;;4989629;28;20179;-74
2023/07/09 04:22:10;;;;;;;12.50;7.33;;;20.90;1.00;;;;;;4989980;28;20712;-70
2023/07/09 04:24:36;;;;;;;12.13;7.13;;;20.90;1.00;;;;;;4989238;28;20254;-74
2023/07/09 04:27:03;;;;;;;12.53;6.83;;;20.90;1.00;;;;;;4991321;28;20871;-74
2023/07/09 04:29:29;;;;;;;9.00;5.97;;;21.00;1.00;;;;;;4990264;28;20190;-74
2023/07/09 04:31:55;;;;;;;10.47;7.20;;;21.10;1.00;;;;;;4988101;28;20430;-74
2023/07/09 04:34:21;;;;;;;13.83;7.10;;;21.10;1.00;;;;;;4973611;28;20450;-74
2023/07/09 04:36:46;;;;;;;10.80;7.23;;;21.30;1.00;;;;;;4990702;28;20696;-74
2023/07/09 04:39:12;;;;;;;10.40;7.13;;;21.30;1.00;;;;;;4990192;28;20589;-72
2023/07/09 04:41:37;;;;;;;11.40;7.10;;;21.30;1.00;;;;;;4989095;28;20488;-72
2023/07/09 04:44:03;;;;;;;10.50;7.07;;;21.20;1.00;;;;;;4986707;28;20198;-74
2023/07/09 04:46:29;;;;;;;8.60;6.20;;;21.20;1.00;;;;;;4989359;28;20210;-74
2023/07/09 04:48:55;;;;;;;9.40;6.97;;;21.20;1.00;;;;;;4986176;28;20186;-74
2023/07/09 04:51:21;;;;;;;10.53;7.40;;;21.20;1.00;;;;;;4985296;28;20179;-74
2023/07/09 04:53:47;;;;;;;14.80;7.70;;;21.20;1.00;;;;;;4988736;28;20468;-73
2023/07/09 04:56:12;;;;;;;12.17;7.43;;;21.20;1.00;;;;;;4989694;28;20454;-73
2023/07/09 04:58:38;;;;;;;13.10;6.70;;;21.40;1.00;;;;;;4990427;28;20323;-73
2023/07/09 05:01:03;;;;;;;12.13;6.97;;;21.40;1.00;;;;;;4989184;28;20651;-73
2023/07/09 05:03:29;;;;;;;12.90;6.87;;;21.40;1.00;;;;;;4989160;28;20214;-73
2023/07/09 05:05:54;;;;;;;10.13;7.00;;;21.50;1.00;;;;;;4988341;28;20237;-74
2023/07/09 05:08:21;;;;;;;10.90;6.73;;;21.70;1.00;;;;;;4980833;28;20186;-74
2023/07/09 05:10:52;;;;;;;11.60;6.90;;;21.60;1.00;;;;;;4989807;28;20661;-74
2023/07/09 05:13:19;;;;;;;11.23;6.70;;;21.70;1.00;;;;;;4987595;28;20476;-74
2023/07/09 05:15:46;;;;;;;10.23;6.90;;;21.80;1.00;;;;;;4990243;28;20481;-74
2023/07/09 05:18:15;;;;;;;9.77;6.87;;;22.00;1.00;;;;;;4989790;28;20453;-73
2023/07/09 05:20:41;;;;;;;9.90;6.90;;;22.10;1.00;;;;;;4982359;28;20445;-74
2023/07/09 05:23:08;;;;;;;10.07;6.90;;;22.30;1.00;;;;;;4988237;28;20462;-74
2023/07/09 05:25:34;;;;;;;13.10;7.57;;;22.30;1.00;;;;;;4988713;28;20437;-74
2023/07/09 05:27:59;;;;;;;10.57;7.40;;;22.40;1.00;;;;;;4978962;28;20668;-74
2023/07/09 05:30:25;;;;;;;10.23;7.30;;;22.60;1.00;;;;;;4989849;28;20195;-74
2023/07/09 05:32:53;;;;;;;13.00;7.70;;;22.70;1.00;;;;;;4989600;28;20202;-74
2023/07/09 05:35:19;;;;;;;11.50;6.93;;;22.80;1.00;;;;;;4987654;28;20538;-74
2023/07/09 05:37:45;;;;;;;11.47;6.87;;;22.90;1.00;;;;;;4989405;28;20893;-73
2023/07/09 05:40:10;;;;;;;10.70;6.77;;;23.00;1.00;;;;;;4987485;28;20593;-74
2023/07/09 05:42:36;;;;;;;12.83;6.33;;;23.10;1.00;;;;;;4987628;28;20226;-72
2023/07/09 05:45:01;;;;;;;10.33;6.67;;;23.20;1.00;;;;;;4987425;28;20661;-74
2023/07/09 05:47:27;;;;;;;8.20;5.97;;;23.30;1.00;;;;;;4984491;28;20201;-73
2023/07/09 05:49:52;;;;;;;11.73;6.70;;;23.40;1.00;;;;;;4986525;28;20174;-74
2023/07/09 05:52:20;;;;;;;12.50;6.27;;;23.60;1.00;;;;;;4987480;28;20214;-75
2023/07/09 05:54:46;;;;;;;8.47;6.10;;;23.70;1.00;;;;;;4989300;28;20274;-74
2023/07/09 05:57:12;;;;;;;11.10;6.67;;;23.90;1.00;;;;;;4986694;28;20553;-74
2023/07/09 05:59:37;;;;;;;9.83;6.47;;;24.00;1.00;;;;;;4989050;28;20269;-74
2023/07/09 06:02:03;;;;;;;12.83;5.97;;;24.10;1.00;;;;;;4986090;28;20968;-74
2023/07/09 06:04:30;;;;;;;8.67;5.90;;;24.20;1.00;;;;;;4986177;28;20186;-74
2023/07/09 06:06:56;;;;;;;8.10;6.00;;;24.40;1.00;;;;;;4984588;28;20186;-73
2023/07/09 06:09:22;;;;;;;10.97;6.20;;;24.40;1.00;;;;;;4984961;28;20544;-74
2023/07/09 06:11:48;;;;;;;10.40;6.40;;;24.70;1.00;;;;;;4988522;28;20844;-73
2023/07/09 06:14:13;;;;;;;9.13;6.37;;;24.80;1.00;;;;;;4988886;28;20186;-74
2023/07/09 06:16:39;;;;;;;12.53;6.50;;;24.90;1.00;;;;;;4988774;28;20186;-73
2023/07/09 06:19:04;;;;;;;12.57;6.17;;;25.00;1.00;;;;;;4982604;28;20266;-74
2023/07/09 06:21:30;;;;;;;8.17;5.93;;;25.20;1.00;;;;;;4984583;28;20557;-74
2023/07/09 06:23:55;;;;;;;9.50;5.30;;;25.30;1.00;;;;;;4987855;28;20221;-74
2023/07/09 06:26:21;;;;;;;8.43;6.30;;;25.40;1.00;;;;;;4986042;28;20185;-74
2023/07/09 06:28:46;;;;;;;9.97;5.87;;;25.40;1.00;;;;;;4987044;28;20261;-75
2023/07/09 06:31:12;;;;;;;10.33;6.00;;;25.60;1.00;;;;;;4987782;28;20194;-75
2023/07/09 06:33:37;;;;;;;9.50;6.80;;;25.70;1.00;;;;;;4988199;28;20210;-74
2023/07/09 06:36:04;;;;;;;8.00;5.93;;;25.80;1.00;;;;;;4987219;28;20261;-74
2023/07/09 06:38:30;;;;;;;9.90;5.60;;;25.90;1.00;;;;;;4988036;28;20183;-73
2023/07/09 06:40:57;;;;;;;12.37;6.13;;;26.00;1.00;;;;;;4985211;28;20499;-75
2023/07/09 06:43:22;;;;;;;8.73;6.30;;;26.20;1.00;;;;;;4987025;28;20226;-74
2023/07/09 06:45:50;;;;;;;11.80;6.50;;;26.30;1.00;;;;;;4989849;28;20422;-75
2023/07/09 06:48:15;;;;;;;9.07;6.60;;;26.40;1.00;;;;;;4987740;28;20273;-73
2023/07/09 06:50:41;;;;;;;10.50;6.27;;;26.50;1.00;;;;;;4985454;28;20274;-75
2023/07/09 06:53:06;;;;;;;10.53;6.30;;;26.60;1.00;;;;;;4980340;28;20238;-75
2023/07/09 06:55:32;;;;;;;9.30;5.80;;;26.80;1.00;;;;;;4986392;28;20599;-74
2023/07/09 06:57:57;;;;;;;8.80;5.70;;;26.70;1.00;;;;;;4985893;28;20187;-75
2023/07/09 07:00:23;;;;;;;9.10;5.37;;;26.80;1.00;;;;;;4986283;28;20202;-73
2023/07/09 07:02:48;;;;;;;10.07;5.73;;;27.00;1.00;;;;;;4987209;28;20568;-74
2023/07/09 07:05:14;;;;;;;10.67;5.60;;;27.10;1.00;;;;;;4984273;28;20179;-75
2023/07/09 07:07:39;;;;;;;9.40;5.90;;;27.30;1.00;;;;;;4985900;28;20617;-71
2023/07/09 07:10:05;;;;;;;9.73;6.03;;;27.50;1.00;;;;;;4986286;28;20737;-75
2023/07/09 07:12:42;;;;;;;7.33;5.50;;;27.60;1.00;;;;;;4977322;28;20249;-74
2023/07/09 07:15:08;;;;;;;8.40;5.70;;;27.80;1.00;;;;;;4987777;28;20560;-74
2023/07/09 07:17:33;;;;;;;8.40;5.40;;;27.90;1.00;;;;;;4987187;28;20187;-73
2023/07/09 07:19:59;;;;;;;8.50;6.30;;;28.10;1.00;;;;;;4986265;28;20703;-74
2023/07/09 07:22:24;;;;;;;9.33;5.70;;;28.30;1.00;;;;;;4979273;28;20230;-72
2023/07/09 07:24:50;;;;;;;7.53;5.50;;;28.50;1.00;;;;;;4987746;28;20189;-75
2023/07/09 07:27:15;;;;;;;9.10;5.37;;;28.50;1.00;;;;;;4985954;28;20444;-75
2023/07/09 07:29:41;;;;;;;7.63;5.30;;;28.60;1.00;;;;;;4972092;28;20237;-72
2023/07/09 07:32:07;;;;;;;7.55;5.28;;;28.80;1.00;;;;;;4986016;28;20294;-75
2023/07/09 07:34:32;;;;;;;8.65;5.68;;;29.10;1.00;;;;;;4984710;28;20191;-75
2023/07/09 07:36:58;;;;;;;8.07;5.50;;;29.30;1.00;;;;;;4989984;28;20281;-75
2023/07/09 07:39:24;;;;;;;10.25;5.65;;;29.40;1.00;;;;;;4992907;28;20195;-73
2023/07/09 07:41:50;;;;;;;9.23;5.43;;;29.80;1.00;;;;;;4991633;28;20194;-74
2023/07/09 07:44:16;;;;;;;9.88;5.88;;;29.80;1.00;;;;;;4981841;28;20187;-73
2023/07/09 07:46:42;;;;;;;8.13;5.28;;;30.00;1.00;;;;;;4990804;28;20190;-72
2023/07/09 07:49:08;;;;;;;8.95;6.07;;;30.30;1.00;;;;;;4989381;28;20175;-73
2023/07/09 07:51:33;;;;;;;12.35;6.30;;;30.60;1.00;;;;;;4990518;28;20190;-72
2023/07/09 07:53:59;;;;;;;10.55;6.10;;;30.80;1.00;;;;;;4990138;28;20257;-74
2023/07/09 07:56:25;;;;;;;10.55;5.10;;;31.10;1.00;;;;;;4990097;28;20187;-73
2023/07/09 07:58:51;;;;;;;9.48;5.18;;;31.20;1.00;;;;;;4991548;28;20183;-72
2023/07/09 08:01:16;;;;;;;7.55;5.15;;;31.30;1.00;;;;;;4988541;28;20183;-74
2023/07/09 08:03:42;;;;;;;8.82;5.50;;;31.50;1.00;;;;;;4990954;28;20213;-74
2023/07/09 08:06:07;;;;;;;7.47;5.63;;;31.60;1.00;;;;;;4991730;28;20699;-75
2023/07/09 08:08:33;;;;;;;8.65;6.07;;;31.30;1.00;;;;;;4991871;28;20262;-72
2023/07/09 08:11:07;;;;;;;8.93;5.50;;;31.60;1.00;;;;;;4992377;28;20262;-75
2023/07/09 08:13:37;;;;;;;10.13;5.85;;;32.00;1.00;;;;;;4991294;28;20206;-74
2023/07/09 08:16:03;;;;;;;12.77;5.57;;;32.30;1.00;;;;;;4992559;28;20183;-75
2023/07/09 08:18:29;;;;;;;9.30;5.38;;;32.70;1.00;;;;;;4991242;28;20554;-73
2023/07/09 08:20:54;;;;;;;9.90;5.60;;;32.70;1.00;;;;;;4992084;28;20183;-75
2023/07/09 08:23:20;;;;;;;9.85;5.85;;;33.00;1.00;;;;;;4991217;28;20317;-74
2023/07/09 08:25:53;;;;;;;8.73;5.55;;;33.10;1.00;;;;;;4985373;28;20183;-75
2023/07/09 08:28:18;;;;;;;8.18;5.53;;;33.50;1.00;;;;;;4991849;28;20277;-75
2023/07/09 08:30:45;;;;;;;7.22;5.68;;;33.40;1.00;;;;;;4991610;28;20265;-75
2023/07/09 08:33:10;;;;;;;10.05;5.18;;;33.40;1.00;;;;;;4990729;28;20550;-75
2023/07/09 08:35:35;;;;;;;9.82;5.50;;;33.60;1.00;;;;;;4985303;28;20253;-75
2023/07/09 08:38:01;;;;;;;6.65;5.10;;;33.40;1.00;;;;;;4991621;28;20198;-75
2023/07/09 08:40:27;;;;;;;8.55;5.70;;;33.70;1.00;;;;;;4991533;28;20536;-75
2023/07/09 08:42:56;;;;;;;7.45;5.28;;;33.90;1.00;;;;;;4990791;28;20260;-75
2023/07/09 08:45:33;;;;;;;8.10;5.30;;;34.40;1.00;;;;;;4991514;28;20190;-75
2023/07/09 08:48:05;;;;;;;8.05;5.28;;;34.50;1.00;;;;;;4991188;28;20779;-75
2023/07/09 08:50:41;;;;;;;7.18;4.55;;;34.50;1.00;;;;;;4988290;28;20187;-75
2023/07/09 08:53:27;;;;;;;7.80;4.80;;;34.60;1.00;;;;;;4984642;28;20352;-75
2023/07/09 08:55:53;;;;;;;7.88;5.13;;;34.40;1.00;;;;;;4990750;28;20194;-74
2023/07/09 08:58:30;;;;;;;6.70;5.03;;;34.50;1.00;;;;;;4991374;28;20599;-74
2023/07/09 09:01:06;;;;;;;6.95;4.70;;;34.40;1.00;;;;;;4991119;28;20556;-75
2023/07/09 09:03:48;;;;;;;7.15;5.13;;;34.70;1.00;;;;;;4990471;28;20206;-72
2023/07/09 09:06:17;;;;;;;7.00;4.70;;;35.00;1.00;;;;;;4989971;28;20272;-75
2023/07/09 09:09:04;;;;;;;9.68;5.60;;;35.50;1.00;;;;;;4990052;28;20266;-74
2023/07/09 09:11:33;;;;;;;7.80;5.20;;;36.10;1.00;;;;;;4987610;28;20179;-75
2023/07/09 09:14:04;;;;;;;7.07;4.80;;;37.30;1.00;;;;;;4981464;28;20210;-76
2023/07/09 09:16:37;;;;;;;9.45;4.63;;;38.10;1.00;;;;;;4991184;28;20194;-76
2023/07/09 09:19:18;;;;;;;7.57;4.80;;;38.80;1.00;;;;;;4987641;28;20739;-76
2023/07/09 09:21:44;;;;;;;9.27;5.10;;;40.10;1.00;;;;;;4990384;28;20201;-76
2023/07/09 09:24:29;;;;;;;7.03;4.72;;;40.10;1.00;;;;;;4988743;28;20233;-76
2023/07/09 09:26:58;;;;;;;5.75;4.25;;;40.80;1.00;;;;;;4990570;28;20232;-76
2023/07/09 09:29:25;;;;;;;7.60;4.70;;;41.70;1.00;;;;;;4990351;28;20183;-76
2023/07/09 09:31:55;;;;;;;9.75;4.50;;;42.80;1.00;;;;;;4989653;28;20190;-76
2023/07/09 09:34:28;;;;;;;6.95;4.38;;;42.90;1.00;;;;;;4988601;28;20181;-77
2023/07/09 09:36:56;;;;;;;10.73;4.03;;;43.30;1.00;;;;;;4991311;28;20229;-77
2023/07/09 09:39:24;;;;;;;6.28;3.95;;;43.50;1.00;;;;;;4978624;28;20245;-73
2023/07/09 09:41:53;;;;;;;8.93;4.55;;;43.30;1.00;;;;;;4982580;28;20184;-75
2023/07/09 09:44:29;;;;;;;9.30;4.43;;;43.40;1.00;;;;;;4975230;28;20186;-77
2023/07/09 09:46:58;;;;;;;9.57;4.70;;;43.70;1.00;;;;;;4989449;28;20205;-77
2023/07/09 09:49:24;;;;;;;11.35;4.22;;;44.10;1.00;;;;;;4992014;28;20183;-77
2023/07/09 09:51:50;;;;;;;6.13;4.00;;;44.90;1.00;;;;;;4989088;28;20723;-76
2023/07/09 09:54:24;;;;;;;6.00;3.88;;;45.00;1.00;;;;;;4988707;28;20229;-78
2023/07/09 09:56:50;;;;;;;7.10;3.70;;;45.60;1.00;;;;;;4986438;28;20272;-77
2023/07/09 09:59:29;;;;;;;6.63;4.15;;;45.30;1.00;;;;;;4988671;28;20632;-77
2023/07/09 10:02:00;;;;;;;9.27;4.22;;;44.30;1.00;;;;;;4985552;28;20209;-77
2023/07/09 10:04:26;;;;;;;8.85;3.78;;;44.40;1.00;;;;;;4989491;28;20181;-76
2023/07/09 10:06:56;;;;;;;8.13;4.68;;;44.20;1.00;;;;;;4988641;28;20776;-77
2023/07/09 10:09:30;;;;;;;6.35;4.50;;;44.10;1.00;;;;;;4987721;28;20194;-77
2023/07/09 10:12:05;;;;;;;11.95;4.60;;;45.40;1.00;;;;;;4985966;28;20178;-76
2023/07/09 10:14:44;;;;;;;6.97;3.90;;;45.60;1.00;;;;;;4988515;28;20269;-77
2023/07/09 10:17:21;;;;;;;9.20;3.90;;;45.60;1.00;;;;;;4982856;28;20178;-77
2023/07/09 10:19:52;;;;;;;5.20;3.80;;;45.70;1.00;;;;;;4984375;28;20178;-75
2023/07/09 10:22:38;;;;;;;7.93;4.35;;;46.00;1.00;;;;;;4986156;28;20257;-77
2023/07/09 10:25:37;;;;;;;7.00;4.50;;;46.10;1.00;;;;;;4986628;28;20649;-76
2023/07/09 10:28:19;;;;;;;7.10;3.83;;;46.30;1.00;;;;;;4986799;28;20179;-78
2023/07/09 10:31:19;;;;;;;6.38;4.22;;;46.90;1.00;;;;;;4989802;28;20200;-77
2023/07/09 10:33:55;;;;;;;5.70;4.03;;;46.00;1.00;;;;;;4985785;28;20744;-76
2023/07/09 10:36:42;;;;;;;6.50;3.80;;;46.20;1.00;;;;;;4989342;28;20270;-77
2023/07/09 10:39:18;;;;;;;5.20;3.90;;;45.90;1.00;;;;;;4985645;28;20210;-74
2023/07/09 10:41:45;;;;;;;7.65;4.57;;;46.70;1.00;;;;;;4982606;28;20185;-81
2023/07/09 10:44:13;;;;;;;5.60;3.80;;;46.70;1.00;;;;;;4986530;28;20175;-77
2023/07/09 10:46:41;;;;;;;5.72;3.63;;;47.50;1.00;;;;;;4985018;28;20620;-76
2023/07/09 10:49:12;;;;;;;8.27;3.38;;;48.10;1.00;;;;;;4982722;28;20250;-77
2023/07/09 10:51:41;;;;;;;6.72;3.60;;;48.10;1.00;;;;;;4987304;28;20186;-77
2023/07/09 10:54:18;;;;;;;4.82;3.53;;;48.30;1.00;;;;;;4988955;28;20194;-78
2023/07/09 10:56:47;;;;;;;6.75;4.07;;;48.30;1.00;;;;;;4990841;28;20425;-74
2023/07/09 10:59:40;;;;;;;5.95;3.90;;;47.90;1.00;;;;;;4995145;28;20186;-77
2023/07/09 11:02:26;;;;;;;6.43;3.60;;;47.60;1.00;;;;;;4985759;28;20284;-77
2023/07/09 11:04:57;;;;;;;9.07;3.83;;;47.20;1.00;;;;;;4987895;28;20217;-76
2023/07/09 11:07:58;;;;;;;5.60;3.92;;;46.50;1.00;;;;;;4988725;28;20652;-77
2023/07/09 11:10:34;;;;;;;5.80;3.88;;;47.00;1.00;;;;;;4980766;28;20490;-77
2023/07/09 11:13:09;;;;;;;7.40;3.80;;;47.50;1.00;;;;;;4993562;28;20210;-78
2023/07/09 11:15:39;;;;;;;4.65;3.40;;;47.90;1.00;;;;;;4992036;28;20177;-77
2023/07/09 11:18:07;;;;;;;5.03;3.63;;;47.90;1.00;;;;;;4991449;28;20261;-77
2023/07/09 11:20:42;;;;;;;8.10;3.78;;;48.70;1.00;;;;;;4992213;28;20183;-77
2023/07/09 11:23:18;;;;;;;6.65;3.60;;;49.50;1.00;;;;;;4991697;28;20256;-77
2023/07/09 11:25:47;;;;;;;4.60;3.42;;;49.00;1.00;;;;;;4992043;28;20265;-77
2023/07/09 11:28:13;;;;;;;5.45;3.50;;;49.20;1.00;;;;;;4980970;28;20214;-77
2023/07/09 11:30:51;;;;;;;7.32;3.50;;;49.10;1.00;;;;;;4987578;28;20679;-78
2023/07/09 11:33:20;;;;;;;7.53;4.05;;;48.70;1.00;;;;;;4988086;28;20271;-77
2023/07/09 11:35:49;;;;;;;8.50;3.60;;;48.80;1.00;;;;;;4986100;28;20591;-78
2023/07/09 11:38:20;;;;;;;4.43;3.33;;;49.20;1.00;;;;;;4984737;28;20183;-78
2023/07/09 11:41:28;;;;;;;6.72;3.35;;;48.70;1.00;;;;;;4989636;28;20210;-77
2023/07/09 11:44:10;;;;;;;7.70;3.72;;;48.70;1.00;;;;;;4985859;28;20209;-77
2023/07/09 11:46:47;;;;;;;5.72;3.40;;;48.70;1.00;;;;;;5003487;28;20194;-78
2023/07/09 11:49:13;;;;;;;6.13;3.30;;;48.70;1.00;;;;;;4985313;28;20273;-78
2023/07/09 11:51:47;;;;;;;4.65;3.33;;;49.10;1.00;;;;;;4991358;28;20262;-78
2023/07/09 11:54:13;;;;;;;5.65;3.50;;;48.20;1.00;;;;;;4988405;28;20186;-77
2023/07/09 11:56:39;;;;;;;5.53;3.50;;;47.30;1.00;;;;;;4990353;28;20544;-75
2023/07/09 11:59:05;;;;;;;6.47;3.53;;;47.40;1.00;;;;;;4989331;28;20186;-75
2023/07/09 12:01:43;;;;;;;7.95;3.78;;;47.90;1.00;;;;;;4983969;28;20245;-76
2023/07/09 12:04:14;;;;;;;7.22;3.30;;;48.10;1.00;;;;;;4986845;28;20202;-76
2023/07/09 12:06:41;;;;;;;6.78;3.70;;;49.20;1.00;;;;;;4990698;28;20358;-77
2023/07/09 12:09:09;;;;;;;4.80;3.10;;;50.30;1.00;;;;;;4986633;28;20771;-75
2023/07/09 12:11:35;;;;;;;7.20;3.70;;;50.50;1.00;;;;;;4986641;28;20210;-75
2023/07/09 12:14:21;;;;;;;6.65;3.20;;;51.00;1.00;;;;;;4989289;28;20214;-77
2023/07/09 12:16:50;;;;;;;6.70;3.20;;;51.70;1.00;;;;;;4984876;28;20184;-76
2023/07/09 12:19:18;;;;;;;4.57;2.83;;;51.80;1.00;;;;;;4986880;28;20233;-76
2023/07/09 12:21:46;;;;;;;5.63;3.20;;;51.80;1.00;;;;;;4974689;28;20982;-72
2023/07/09 12:24:20;;;;;;;5.38;3.38;;;51.00;1.00;;;;;;4971449;28;20210;-76
2023/07/09 12:26:49;;;;;;;6.70;3.40;;;50.30;1.00;;;;;;4983967;28;20178;-75
2023/07/09 12:29:15;;;;;;;5.43;3.67;;;50.20;1.00;;;;;;4985770;28;21006;-76
2023/07/09 12:31:40;;;;;;;7.00;3.60;;;50.20;1.00;;;;;;4979134;28;20186;-76
2023/07/09 12:34:11;;;;;;;6.22;3.33;;;50.20;1.00;;;;;;4977944;28;20270;-76
2023/07/09 12:36:39;;;;;;;5.88;3.13;;;50.60;1.00;;;;;;4987904;28;20648;-74
2023/07/09 12:39:04;;;;;;;6.78;3.33;;;50.50;1.00;;;;;;4995271;28;20652;-77
2023/07/09 12:41:40;;;;;;;6.93;3.50;;;49.90;1.00;;;;;;4985484;28;20214;-75
2023/07/09 12:44:11;;;;;;;8.10;3.80;;;50.10;1.00;;;;;;4993848;28;20360;-77
2023/07/09 12:46:36;;;;;;;5.70;3.42;;;49.70;1.00;;;;;;4986845;28;20190;-76
2023/07/09 12:49:05;;;;;;;5.22;3.53;;;49.00;1.00;;;;;;4987175;28;20179;-76
2023/07/09 12:51:31;;;;;;;6.30;3.83;;;48.50;1.00;;;;;;4988578;28;20183;-76
2023/07/09 12:54:13;;;;;;;6.18;4.05;;;48.70;1.00;;;;;;4986869;28;20206;-77
2023/07/09 12:56:38;;;;;;;6.63;3.88;;;48.70;1.00;;;;;;4987437;28;20457;-76
2023/07/09 12:59:23;;;;;;;9.60;3.90;;;48.80;1.00;;;;;;4986248;28;20182;-76
2023/07/09 13:02:01;;;;;;;9.43;4.07;;;48.80;1.00;;;;;;4983094;28;20186;-76